createdAt,value
2018-09-27T00:00:12.396Z,97145.45
2018-09-27T00:02:46.803Z,97142.31
2018-09-27T00:05:21.500Z,97142.52
2018-09-27T00:07:55.888Z,97143.00
2018-09-27T00:10:30.556Z,97142.91
2018-09-27T00:13:05.564Z,97147.98
2018-09-27T00:15:40.723Z,97141.88
2018-09-27T00:18:15.275Z,97140.31
2018-09-27T00:20:49.699Z,97133.63
2018-09-27T00:23:24.018Z,97135.77
2018-09-27T00:25:58.725Z,97135.30
2018-09-27T00:28:33.439Z,97132.70
2018-09-27T00:31:08.190Z,97135.23
2018-09-27T00:33:42.996Z,97125.67
2018-09-27T00:36:17.669Z,97129.49
2018-09-27T00:38:52.155Z,97128.13
2018-09-27T00:41:26.553Z,97128.26
2018-09-27T00:44:01.133Z,97129.59
2018-09-27T00:46:35.996Z,97132.94
2018-09-27T00:49:10.324Z,97122.91
2018-09-27T00:51:44.732Z,97126.18
2018-09-27T00:54:19.680Z,97122.97
2018-09-27T00:56:54.255Z,97123.47
2018-09-27T00:59:29.023Z,97112.81
2018-09-27T01:02:03.707Z,97115.44
2018-09-27T01:04:38.359Z,97110.52
2018-09-27T01:07:13.232Z,97111.81
2018-09-27T01:09:48.707Z,97114.20
2018-09-27T01:12:23.262Z,97110.79
2018-09-27T01:14:57.831Z,97109.36
2018-09-27T01:17:33.101Z,97108.30
2018-09-27T01:20:07.976Z,97096.69
2018-09-27T01:22:43.124Z,97106.83
2018-09-27T01:25:17.548Z,97106.48
2018-09-27T01:27:55.246Z,97108.70
2018-09-27T01:30:30.118Z,97104.47
2018-09-27T01:33:05.096Z,97108.78
2018-09-27T01:35:39.475Z,97101.48
2018-09-27T01:38:13.948Z,97106.25
2018-09-27T01:40:48.551Z,97099.66
2018-09-27T01:43:23.183Z,97105.80
2018-09-27T01:45:57.492Z,97110.29
2018-09-27T01:48:31.835Z,97105.39
2018-09-27T01:51:06.683Z,97107.08
2018-09-27T01:53:41.261Z,97113.39
2018-09-27T01:56:16.348Z,97116.95
2018-09-27T01:58:50.685Z,97109.02
2018-09-27T02:01:25.748Z,97117.66
2018-09-27T02:04:00.483Z,97116.62
2018-09-27T02:06:35.191Z,97120.28
2018-09-27T02:09:10.028Z,97119.34
2018-09-27T02:11:45.154Z,97118.40
2018-09-27T02:14:19.512Z,97118.09
2018-09-27T02:16:54.039Z,97118.69
2018-09-27T02:19:28.856Z,97122.48
2018-09-27T02:22:04.331Z,97125.30
2018-09-27T02:24:38.674Z,97123.53
2018-09-27T02:27:13.481Z,97121.89
2018-09-27T02:29:47.844Z,97117.78
2018-09-27T02:32:22.409Z,97117.34
2018-09-27T02:34:57.264Z,97112.30
2018-09-27T02:37:31.648Z,97107.59
2018-09-27T02:40:06.540Z,97113.12
2018-09-27T02:42:41.566Z,97108.77
2018-09-27T02:45:16.132Z,97103.80
2018-09-27T02:47:50.968Z,97107.95
2018-09-27T02:50:25.867Z,97099.96
2018-09-27T02:53:00.676Z,97104.53
2018-09-27T02:55:35.419Z,97102.80
2018-09-27T02:58:10.140Z,97100.69
2018-09-27T03:00:44.936Z,97101.55
2018-09-27T03:03:19.468Z,97097.19
2018-09-27T03:05:54.036Z,97091.92
2018-09-27T03:08:28.437Z,97093.81
2018-09-27T03:11:03.115Z,97096.11
2018-09-27T03:13:38.049Z,97097.53
2018-09-27T03:16:13.014Z,97101.32
2018-09-27T03:18:47.867Z,97097.19
2018-09-27T03:21:22.436Z,97098.73
2018-09-27T03:23:57.287Z,97100.53
2018-09-27T03:26:31.979Z,97090.53
2018-09-27T03:29:07.267Z,97088.06
2018-09-27T03:31:41.901Z,97088.67
2018-09-27T03:34:16.385Z,97089.48
2018-09-27T03:36:50.963Z,97086.91
2018-09-27T03:39:25.523Z,97079.70
2018-09-27T03:42:00.188Z,97077.59
2018-09-27T03:44:34.780Z,97074.91
2018-09-27T03:47:09.492Z,97077.38
2018-09-27T03:49:44.363Z,97070.31
2018-09-27T03:52:19.002Z,97074.31
2018-09-27T03:54:53.738Z,97077.50
2018-09-27T03:57:28.116Z,97075.73
2018-09-27T04:00:02.626Z,97075.26
2018-09-27T04:02:37.311Z,97078.47
2018-09-27T04:05:12.084Z,97082.00
2018-09-27T04:07:46.421Z,97080.59
2018-09-27T04:10:20.940Z,97077.66
2018-09-27T04:12:55.388Z,97074.47
2018-09-27T04:15:33.584Z,97069.30
2018-09-27T04:18:08.048Z,97067.78
2018-09-27T04:20:49.409Z,97065.06
2018-09-27T04:23:25.147Z,97059.92
2018-09-27T04:25:59.873Z,97054.78
2018-09-27T04:28:34.768Z,97055.82
2018-09-27T04:31:10.138Z,97049.61
2018-09-27T04:33:44.852Z,97052.66
2018-09-27T04:36:19.601Z,97046.80
2018-09-27T04:38:54.257Z,97051.72
2018-09-27T04:41:32.723Z,97057.02
2018-09-27T04:44:07.704Z,97051.37
2018-09-27T04:46:42.291Z,97055.02
2018-09-27T04:49:18.272Z,97047.14
2018-09-27T04:51:53.482Z,97054.22
2018-09-27T04:54:28.491Z,97055.38
2018-09-27T04:57:03.639Z,97051.16
2018-09-27T04:59:38.068Z,97053.25
2018-09-27T05:02:12.751Z,97058.56
2018-09-27T05:04:47.522Z,97061.29
2018-09-27T05:07:21.956Z,97060.84
2018-09-27T05:09:57.329Z,97061.31
2018-09-27T05:12:32.252Z,97067.16
2018-09-27T05:15:07.803Z,97062.94
2018-09-27T05:17:42.492Z,97062.13
2018-09-27T05:20:17.239Z,97061.41
2018-09-27T05:22:52.281Z,97062.60
2018-09-27T05:25:27.167Z,97060.93
2018-09-27T05:28:01.433Z,97057.66
2018-09-27T05:30:36.286Z,97053.53
2018-09-27T05:33:10.723Z,97059.41
2018-09-27T05:35:45.408Z,97059.28
2018-09-27T05:38:19.816Z,97059.03
2018-09-27T05:40:54.443Z,97052.36
2018-09-27T05:43:29.052Z,97050.82
2018-09-27T05:46:04.352Z,97042.58
2018-09-27T05:48:39.227Z,97051.64
2018-09-27T05:51:14.128Z,97048.66
2018-09-27T05:53:49.597Z,97046.42
2018-09-27T05:56:24.707Z,97045.45
2018-09-27T05:58:59.463Z,97049.80
2018-09-27T06:01:34.149Z,97045.05
2018-09-27T06:04:08.640Z,97049.27
2018-09-27T06:06:43.327Z,97042.42
2018-09-27T06:09:17.649Z,97047.77
2018-09-27T06:11:52.392Z,97044.80
2018-09-27T06:14:26.847Z,97043.71
2018-09-27T06:17:01.728Z,97037.07
2018-09-27T06:19:36.717Z,97045.05
2018-09-27T06:22:11.695Z,97056.11
2018-09-27T06:24:46.200Z,97052.39
2018-09-27T06:27:20.938Z,97050.47
2018-09-27T06:29:55.421Z,97049.81
2018-09-27T06:32:29.918Z,97047.28
2018-09-27T06:35:04.663Z,97035.56
2018-09-27T06:37:39.447Z,97039.42
2018-09-27T06:40:14.008Z,97035.14
2018-09-27T06:42:48.833Z,97027.95
2018-09-27T06:45:23.548Z,97031.48
2018-09-27T06:47:58.176Z,97026.90
2018-09-27T06:50:32.461Z,97020.41
2018-09-27T06:53:07.223Z,97027.66
2018-09-27T06:55:41.600Z,97018.19
2018-09-27T06:58:16.532Z,97024.47
2018-09-27T07:00:51.514Z,97022.89
2018-09-27T07:03:26.329Z,97010.92
2018-09-27T07:06:01.176Z,97013.22
2018-09-27T07:08:35.956Z,97012.70
2018-09-27T07:11:10.652Z,97024.69
2018-09-27T07:13:45.336Z,97026.80
2018-09-27T07:16:20.152Z,97030.52
2018-09-27T07:18:54.634Z,97035.80
2018-09-27T07:21:29.276Z,97031.86
2018-09-27T07:24:04.495Z,97037.84
2018-09-27T07:26:39.645Z,97032.14
2018-09-27T07:29:14.384Z,97028.31
2018-09-27T07:31:49.317Z,97035.79
2018-09-27T07:34:23.814Z,97029.55
2018-09-27T07:36:58.783Z,97034.57
2018-09-27T07:39:33.924Z,97035.06
2018-09-27T07:42:09.247Z,97030.99
2018-09-27T07:44:43.614Z,97028.99
2018-09-27T07:47:18.588Z,97034.84
2018-09-27T07:49:53.560Z,97027.64
2018-09-27T07:52:27.974Z,97021.72
2018-09-27T07:55:02.789Z,97022.60
2018-09-27T07:57:37.820Z,97028.00
2018-09-27T08:00:12.328Z,97031.17
2018-09-27T08:02:46.689Z,97031.16
2018-09-27T08:05:21.830Z,97023.27
2018-09-27T08:07:56.343Z,97023.86
2018-09-27T08:10:30.980Z,97020.81
2018-09-27T08:13:06.071Z,97022.70
2018-09-27T08:15:41.069Z,97020.56
2018-09-27T08:18:15.503Z,97022.19
2018-09-27T08:20:50.203Z,97014.64
2018-09-27T08:23:25.071Z,97011.44
2018-09-27T08:26:00.348Z,97012.16
2018-09-27T08:28:35.580Z,97011.34
2018-09-27T08:31:10.173Z,97017.58
2018-09-27T08:33:44.961Z,97016.44
2018-09-27T08:36:19.427Z,97017.03
2018-09-27T08:38:53.780Z,97016.23
2018-09-27T08:41:28.437Z,97020.19
2018-09-27T08:44:03.512Z,97016.84
2018-09-27T08:46:38.521Z,97021.36
2018-09-27T08:49:13.341Z,97010.09
2018-09-27T08:51:47.798Z,97010.40
2018-09-27T08:54:22.213Z,97007.77
2018-09-27T08:56:56.531Z,97005.52
2018-09-27T08:59:31.292Z,97002.06
2018-09-27T09:02:05.948Z,97003.55
2018-09-27T09:04:40.331Z,96992.27
2018-09-27T09:07:14.760Z,97000.10
2018-09-27T09:09:49.298Z,96991.57
2018-09-27T09:12:23.709Z,96989.74
2018-09-27T09:14:57.995Z,96988.13
2018-09-27T09:17:32.422Z,96984.84
2018-09-27T09:20:07.563Z,96980.09
2018-09-27T09:22:41.996Z,96975.41
2018-09-27T09:25:17.015Z,96969.73
2018-09-27T09:27:51.458Z,96968.55
2018-09-27T09:30:26.470Z,96968.37
2018-09-27T09:33:01.299Z,96961.04
2018-09-27T09:35:35.936Z,96954.01
2018-09-27T09:38:10.572Z,96944.97
2018-09-27T09:40:45.140Z,96944.29
2018-09-27T09:43:19.675Z,96940.31
2018-09-27T09:45:54.965Z,96937.47
2018-09-27T09:48:29.760Z,96930.66
2018-09-27T09:51:04.620Z,96934.44
2018-09-27T09:53:39.439Z,96929.98
2018-09-27T09:56:14.192Z,96929.48
2018-09-27T09:58:48.644Z,96921.94
2018-09-27T10:01:23.160Z,96921.16
2018-09-27T10:03:57.675Z,96921.06
2018-09-27T10:06:32.155Z,96922.48
2018-09-27T10:09:08.563Z,96919.63
2018-09-27T10:11:46.967Z,96912.05
2018-09-27T10:14:21.604Z,96904.36
2018-09-27T10:16:56.460Z,96902.12
2018-09-27T10:19:30.775Z,96902.98
2018-09-27T10:22:05.192Z,96892.02
2018-09-27T10:24:39.768Z,96891.08
2018-09-27T10:27:14.512Z,96886.68
2018-09-27T10:29:49.066Z,96888.33
2018-09-27T10:32:23.460Z,96883.66
2018-09-27T10:34:57.780Z,96885.64
2018-09-27T10:37:32.082Z,96866.34
2018-09-27T10:40:06.777Z,96866.63
2018-09-27T10:42:41.691Z,96861.97
2018-09-27T10:45:16.029Z,96859.42
2018-09-27T10:47:50.665Z,96855.12
2018-09-27T10:50:25.123Z,96852.70
2018-09-27T10:52:59.553Z,96850.73
2018-09-27T10:55:34.441Z,96850.55
2018-09-27T10:58:09.195Z,96851.54
2018-09-27T11:00:44.143Z,96843.16
2018-09-27T11:03:19.052Z,96844.05
2018-09-27T11:05:54.248Z,96844.40
2018-09-27T11:08:28.791Z,96840.78
2018-09-27T11:11:03.689Z,96837.75
2018-09-27T11:13:38.948Z,96839.23
2018-09-27T11:16:13.227Z,96833.95
2018-09-27T11:18:47.752Z,96832.94
2018-09-27T11:21:22.204Z,96831.14
2018-09-27T11:23:56.680Z,96829.77
2018-09-27T11:26:31.159Z,96823.66
2018-09-27T11:29:11.197Z,96817.86
2018-09-27T11:31:51.815Z,96810.27
2018-09-27T11:34:27.119Z,96797.79
2018-09-27T11:37:01.431Z,96800.63
2018-09-27T11:39:36.036Z,96792.64
2018-09-27T11:42:10.643Z,96785.73
2018-09-27T11:44:45.852Z,96784.48
2018-09-27T11:47:20.224Z,96785.60
2018-09-27T11:49:55.226Z,96776.94
2018-09-27T11:52:29.885Z,96776.44
2018-09-27T11:55:05.174Z,96761.87
2018-09-27T11:57:40.209Z,96760.72
2018-09-27T12:00:15.632Z,96762.23
2018-09-27T12:02:49.889Z,96764.09
2018-09-27T12:05:24.796Z,96757.86
2018-09-27T12:07:59.460Z,96753.42
2018-09-27T12:10:33.924Z,96753.19
2018-09-27T12:13:08.608Z,96745.70
2018-09-27T12:15:43.710Z,96747.17
2018-09-27T12:18:18.368Z,96737.93
2018-09-27T12:20:53.080Z,96736.29
2018-09-27T12:23:27.595Z,96732.80
2018-09-27T12:26:02.388Z,96729.96
2018-09-27T12:28:37.086Z,96729.86
2018-09-27T12:31:11.663Z,96716.84
2018-09-27T12:33:46.540Z,96714.05
2018-09-27T12:36:20.813Z,96709.63
2018-09-27T12:38:55.291Z,96708.90
2018-09-27T12:41:30.086Z,96704.29
2018-09-27T12:44:04.712Z,96700.25
2018-09-27T12:46:39.088Z,96696.66
2018-09-27T12:49:14.035Z,96696.96
2018-09-27T12:51:49.196Z,96691.09
2018-09-27T12:54:25.261Z,96691.06
2018-09-27T12:56:59.566Z,96684.47
2018-09-27T12:59:34.548Z,96682.09
2018-09-27T13:02:09.822Z,96679.61
2018-09-27T13:04:44.731Z,96673.57
2018-09-27T13:07:19.612Z,96667.51
2018-09-27T13:09:55.125Z,96665.63
2018-09-27T13:12:30.101Z,96660.04
2018-09-27T13:15:05.221Z,96650.83
2018-09-27T13:17:40.013Z,96642.16
2018-09-27T13:20:16.055Z,96634.53
2018-09-27T13:22:51.202Z,96637.59
2018-09-27T13:25:25.966Z,96643.23
2018-09-27T13:28:00.873Z,96626.36
2018-09-27T13:30:35.667Z,96624.48
2018-09-27T13:33:10.337Z,96611.69
2018-09-27T13:35:46.036Z,96617.82
2018-09-27T13:38:20.356Z,96611.11
2018-09-27T13:40:54.692Z,96603.02
2018-09-27T13:43:29.182Z,96597.40
2018-09-27T13:46:03.943Z,96594.91
2018-09-27T13:48:38.646Z,96597.20
2018-09-27T13:51:13.674Z,96588.84
2018-09-27T13:53:48.209Z,96584.34
2018-09-27T13:56:22.876Z,96582.38
2018-09-27T13:58:57.561Z,96574.37
2018-09-27T14:01:32.035Z,96577.81
2018-09-27T14:04:06.952Z,96581.94
2018-09-27T14:06:41.337Z,96575.79
2018-09-27T14:09:15.932Z,96572.02
2018-09-27T14:11:51.227Z,96565.41
2018-09-27T14:14:25.632Z,96576.63
2018-09-27T14:17:00.510Z,96561.92
2018-09-27T14:19:35.100Z,96566.06
2018-09-27T14:22:09.545Z,96555.11
2018-09-27T14:24:44.043Z,96550.26
2018-09-27T14:27:19.304Z,96549.81
2018-09-27T14:29:53.867Z,96554.19
2018-09-27T14:32:28.463Z,96551.01
2018-09-27T14:35:03.852Z,96541.42
2018-09-27T14:37:38.507Z,96537.16
2018-09-27T14:40:13.351Z,96535.73
2018-09-27T14:42:52.533Z,96534.47
2018-09-27T14:45:27.251Z,96526.70
2018-09-27T14:48:01.987Z,96520.05
2018-09-27T14:50:36.547Z,96521.09
2018-09-27T14:53:10.974Z,96517.54
2018-09-27T14:55:45.628Z,96509.50
2018-09-27T14:58:20.509Z,96512.59
2018-09-27T15:00:54.814Z,96515.37
2018-09-27T15:03:30.190Z,96504.97
2018-09-27T15:06:05.156Z,96497.88
2018-09-27T15:08:39.774Z,96499.55
2018-09-27T15:11:14.212Z,96503.08
2018-09-27T15:13:51.159Z,96497.73
2018-09-27T15:16:25.957Z,96500.41
2018-09-27T15:19:01.647Z,96497.88
2018-09-27T15:21:36.664Z,96487.39
2018-09-27T15:24:11.760Z,96482.00
2018-09-27T15:26:46.411Z,96485.20
2018-09-27T15:29:21.137Z,96482.45
2018-09-27T15:31:55.973Z,96481.55
2018-09-27T15:34:31.591Z,96482.12
2018-09-27T15:37:06.411Z,96479.25
2018-09-27T15:39:40.894Z,96475.52
2018-09-27T15:42:16.204Z,96476.62
2018-09-27T15:44:50.711Z,96478.16
2018-09-27T15:47:25.348Z,96471.71
2018-09-27T15:50:00.077Z,96469.25
2018-09-27T15:52:34.828Z,96472.47
2018-09-27T15:55:09.488Z,96468.82
2018-09-27T15:57:44.089Z,96462.33
2018-09-27T16:00:18.627Z,96459.89
2018-09-27T16:02:53.381Z,96462.38
2018-09-27T16:05:27.977Z,96455.84
2018-09-27T16:08:02.646Z,96449.52
2018-09-27T16:10:37.659Z,96453.73
2018-09-27T16:13:12.472Z,96454.66
2018-09-27T16:15:47.384Z,96446.16
2018-09-27T16:18:22.648Z,96446.56
2018-09-27T16:20:57.292Z,96444.52
2018-09-27T16:23:35.425Z,96449.98
2018-09-27T16:26:10.084Z,96443.10
2018-09-27T16:28:44.576Z,96438.52
2018-09-27T16:31:19.783Z,96436.79
2018-09-27T16:33:57.001Z,96434.05
2018-09-27T16:36:32.504Z,96434.99
2018-09-27T16:39:09.250Z,96429.30
2018-09-27T16:41:46.859Z,96426.57
2018-09-27T16:44:22.004Z,96423.94
2018-09-27T16:46:56.886Z,96427.13
2018-09-27T16:49:31.351Z,96420.91
2018-09-27T16:52:07.814Z,96420.13
2018-09-27T16:54:42.542Z,96416.13
2018-09-27T16:57:20.634Z,96410.92
2018-09-27T16:59:55.192Z,96409.57
2018-09-27T17:02:30.166Z,96402.73
2018-09-27T17:05:05.216Z,96404.30
2018-09-27T17:07:39.676Z,96405.02
2018-09-27T17:10:14.060Z,96402.91
2018-09-27T17:12:48.702Z,96399.50
2018-09-27T17:15:23.619Z,96398.00
2018-09-27T17:17:57.944Z,96396.97
2018-09-27T17:20:32.393Z,96394.84
2018-09-27T17:23:07.309Z,96399.20
2018-09-27T17:25:45.928Z,96391.91
2018-09-27T17:28:20.466Z,96393.84
2018-09-27T17:30:55.040Z,96394.09
2018-09-27T17:33:29.749Z,96387.03
2018-09-27T17:36:09.228Z,96380.03
2018-09-27T17:38:43.898Z,96382.26
2018-09-27T17:41:18.608Z,96382.53
2018-09-27T17:43:58.849Z,96382.92
2018-09-27T17:46:34.154Z,96380.77
2018-09-27T17:49:10.530Z,96382.58
2018-09-27T17:51:46.689Z,96374.06
2018-09-27T17:54:21.354Z,96378.95
2018-09-27T17:56:55.881Z,96375.70
2018-09-27T17:59:31.448Z,96379.09
2018-09-27T18:02:06.477Z,96372.62
2018-09-27T18:04:41.031Z,96368.58
2018-09-27T18:07:15.892Z,96378.16
2018-09-27T18:09:50.589Z,96381.51
2018-09-27T18:12:26.172Z,96382.92
2018-09-27T18:15:02.392Z,96381.52
2018-09-27T18:17:41.117Z,96384.04
2018-09-27T18:20:16.096Z,96386.35
2018-09-27T18:22:51.089Z,96383.23
2018-09-27T18:25:25.946Z,96390.32
2018-09-27T18:28:00.668Z,96390.52
2018-09-27T18:30:35.068Z,96388.44
2018-09-27T18:33:09.958Z,96387.58
2018-09-27T18:35:48.358Z,96386.63
2018-09-27T18:38:22.694Z,96384.84
2018-09-27T18:40:57.782Z,96377.98
2018-09-27T18:43:32.524Z,96377.75
2018-09-27T18:46:08.213Z,96376.95
2018-09-27T18:48:42.776Z,96375.25
2018-09-27T18:51:17.967Z,96372.20
2018-09-27T18:53:52.624Z,96375.44
2018-09-27T18:56:27.324Z,96370.64
2018-09-27T18:59:01.836Z,96371.48
2018-09-27T19:01:37.282Z,96369.50
2018-09-27T19:04:11.841Z,96364.64
2018-09-27T19:06:46.672Z,96365.05
2018-09-27T19:09:21.385Z,96355.20
2018-09-27T19:11:56.306Z,96359.34
2018-09-27T19:14:30.631Z,96358.28
2018-09-27T19:17:05.279Z,96359.05
2018-09-27T19:19:39.710Z,96358.11
2018-09-27T19:22:14.193Z,96359.61
2018-09-27T19:24:49.213Z,96360.38
2018-09-27T19:27:23.932Z,96355.25
2018-09-27T19:29:58.516Z,96366.70
2018-09-27T19:32:33.213Z,96369.56
2018-09-27T19:35:08.471Z,96363.26
2018-09-27T19:37:43.829Z,96364.87
2018-09-27T19:40:18.683Z,96367.91
2018-09-27T19:42:53.448Z,96363.23
2018-09-27T19:45:28.792Z,96359.05
2018-09-27T19:48:03.145Z,96359.30
2018-09-27T19:50:37.833Z,96356.47
2018-09-27T19:53:12.550Z,96354.19
2018-09-27T19:55:47.132Z,96361.33
2018-09-27T19:58:21.812Z,96354.62
2018-09-27T20:00:56.415Z,96354.03
2018-09-27T20:03:31.124Z,96354.12
2018-09-27T20:06:07.383Z,96355.66
2018-09-27T20:08:42.048Z,96357.59
2018-09-27T20:11:16.473Z,96352.45
2018-09-27T20:13:50.889Z,96351.64
2018-09-27T20:16:25.384Z,96348.09
2018-09-27T20:19:00.684Z,96344.00
2018-09-27T20:21:35.923Z,96350.95
2018-09-27T20:24:10.605Z,96347.56
2018-09-27T20:26:45.119Z,96344.63
2018-09-27T20:29:19.812Z,96343.72
2018-09-27T20:31:54.204Z,96342.37
2018-09-27T20:34:28.610Z,96336.94
2018-09-27T20:37:03.300Z,96335.45
2018-09-27T20:39:37.720Z,96336.94
2018-09-27T20:42:12.236Z,96335.19
2018-09-27T20:44:46.552Z,96333.05
2018-09-27T20:47:20.916Z,96335.05
2018-09-27T20:49:55.317Z,96332.44
2018-09-27T20:52:30.197Z,96331.03
2018-09-27T20:55:04.552Z,96325.36
2018-09-27T20:57:39.027Z,96324.51
2018-09-27T21:00:14.056Z,96319.64
2018-09-27T21:02:48.503Z,96314.69
2018-09-27T21:05:22.968Z,96312.43
2018-09-27T21:07:57.291Z,96310.98
2018-09-27T21:10:31.817Z,96307.77
2018-09-27T21:13:06.888Z,96305.31
2018-09-27T21:15:41.224Z,96306.02
2018-09-27T21:18:15.808Z,96300.02
2018-09-27T21:20:50.224Z,96306.09
2018-09-27T21:23:26.409Z,96309.66
2018-09-27T21:26:00.988Z,96313.30
2018-09-27T21:28:35.703Z,96308.46
2018-09-27T21:31:10.453Z,96313.03
2018-09-27T21:33:45.859Z,96310.59
2018-09-27T21:36:20.336Z,96309.52
2018-09-27T21:39:00.957Z,96303.03
2018-09-27T21:41:35.440Z,96316.59
2018-09-27T21:44:09.927Z,96315.78
2018-09-27T21:46:44.555Z,96311.56
2018-09-27T21:49:19.007Z,96312.72
2018-09-27T21:51:53.529Z,96306.48
2018-09-27T21:54:28.463Z,96301.74
2018-09-27T21:57:03.217Z,96306.77
2018-09-27T21:59:38.059Z,96305.42
2018-09-27T22:02:13.237Z,96305.75
2018-09-27T22:04:47.617Z,96305.43
2018-09-27T22:07:24.867Z,96310.64
2018-09-27T22:09:59.640Z,96308.05
2018-09-27T22:12:34.481Z,96311.02
2018-09-27T22:15:08.924Z,96305.48
2018-09-27T22:17:43.315Z,96303.63
2018-09-27T22:20:17.674Z,96304.30
2018-09-27T22:22:52.115Z,96305.27
2018-09-27T22:25:26.679Z,96300.75
2018-09-27T22:28:01.598Z,96304.69
2018-09-27T22:30:36.341Z,96300.91
2018-09-27T22:33:10.740Z,96293.95
2018-09-27T22:35:45.255Z,96293.27
2018-09-27T22:38:19.775Z,96296.23
2018-09-27T22:40:54.186Z,96289.39
2018-09-27T22:43:28.821Z,96290.20
2018-09-27T22:46:03.092Z,96288.14
2018-09-27T22:48:37.588Z,96280.49
2018-09-27T22:51:12.062Z,96286.68
2018-09-27T22:53:46.359Z,96276.91
2018-09-27T22:56:21.015Z,96282.11
2018-09-27T22:58:55.499Z,96283.59
2018-09-27T23:01:30.028Z,96284.09
2018-09-27T23:04:04.824Z,96285.38
2018-09-27T23:06:39.666Z,96287.38
2018-09-27T23:09:14.480Z,96284.61
2018-09-27T23:11:49.175Z,96281.22
2018-09-27T23:14:23.680Z,96281.22
2018-09-27T23:16:58.443Z,96274.55
2018-09-27T23:19:33.459Z,96277.47
2018-09-27T23:22:08.320Z,96272.42
2018-09-27T23:24:43.048Z,96275.02
2018-09-27T23:27:17.539Z,96277.48
2018-09-27T23:29:52.045Z,96270.83
2018-09-27T23:32:27.668Z,96274.08
2018-09-27T23:35:02.336Z,96267.38
2018-09-27T23:37:36.760Z,96266.57
2018-09-27T23:40:11.319Z,96261.19
2018-09-27T23:42:45.876Z,96265.41
2018-09-27T23:45:20.676Z,96259.56
2018-09-27T23:47:54.980Z,96264.77
2018-09-27T23:50:29.983Z,96261.20
2018-09-27T23:53:04.800Z,96258.75
2018-09-27T23:55:39.325Z,96259.73
2018-09-27T23:58:13.677Z,96255.34
